Time;durP1;ratioP1;P1;durP2;ratioP2;P2;SDS_P1;SDS_P2;PMS_P1;PMS_P2;Temp;Humidity;BMP_temperature;BMP_pressure;BME280_temperature;BME280_humidity;BME280_pressure;Samples;Min_cycle;Max_cycle;Signal;HPM_P1;HPM_P2
2023/04/07 00:00:07;;;;;;;5.70;3.00;;;9.90;96.70;;;;;;5077980;28;20063;-74
2023/04/07 00:02:38;;;;;;;5.97;3.17;;;9.90;96.70;;;;;;5082243;28;20462;-75
2023/04/07 00:05:09;;;;;;;3.80;2.67;;;9.90;96.70;;;;;;5075445;28;20105;-74
2023/04/07 00:07:38;;;;;;;4.20;2.38;;;9.90;96.70;;;;;;5084023;28;20036;-75
2023/04/07 00:14:12;;;;;;;5.15;2.75;;;9.70;96.70;;;;;;5082627;28;20081;-74
2023/04/07 00:16:41;;;;;;;3.80;2.50;;;9.60;96.70;;;;;;5074078;28;20538;-74
2023/04/07 00:19:09;;;;;;;5.20;2.83;;;9.60;96.70;;;;;;5081968;28;20516;-75
2023/04/07 00:21:38;;;;;;;5.78;3.25;;;9.70;96.70;;;;;;5076125;28;20119;-74
2023/04/07 00:24:07;;;;;;;5.15;3.03;;;9.70;96.70;;;;;;5074323;28;20046;-74
2023/04/07 00:26:35;;;;;;;4.93;2.88;;;9.50;96.70;;;;;;5086822;28;20116;-74
2023/04/07 00:29:04;;;;;;;5.93;3.45;;;9.50;96.70;;;;;;5074849;28;20134;-74
2023/04/07 00:31:34;;;;;;;6.30;3.83;;;9.20;96.70;;;;;;5085792;28;20039;-75
2023/04/07 00:34:03;;;;;;;4.93;3.65;;;9.40;96.70;;;;;;5076449;28;20131;-74
2023/04/07 00:36:32;;;;;;;3.88;3.20;;;9.30;96.70;;;;;;5077740;28;20127;-74
2023/04/07 00:39:00;;;;;;;5.75;3.50;;;9.10;96.70;;;;;;5067884;28;20068;-74
2023/04/07 00:41:29;;;;;;;5.18;3.15;;;9.00;96.70;;;;;;5074263;28;20044;-74
2023/04/07 03:24:26;;;;;;;5.32;3.03;;;7.40;96.70;;;;;;5065672;28;20059;-73
2023/04/07 03:26:55;;;;;;;5.22;3.20;;;7.70;96.70;;;;;;5059037;28;20052;-73
2023/04/07 03:29:35;;;;;;;6.00;3.28;;;7.90;96.70;;;;;;5077744;28;20044;-74
2023/04/07 03:32:06;;;;;;;5.13;2.60;;;7.70;96.70;;;;;;5064959;28;20052;-74
2023/04/07 03:34:34;;;;;;;7.10;3.28;;;7.60;96.70;;;;;;5075330;28;20039;-74
2023/04/07 03:37:03;;;;;;;5.15;2.78;;;7.40;96.70;;;;;;5074641;28;20052;-73
2023/04/07 03:39:36;;;;;;;4.15;2.75;;;7.50;96.70;;;;;;5076235;28;20052;-74
2023/04/07 03:42:17;;;;;;;3.60;2.20;;;7.60;96.70;;;;;;5064493;28;20046;-74
2023/04/07 03:44:46;;;;;;;4.50;2.80;;;7.70;96.70;;;;;;5079307;28;20040;-74
2023/04/07 04:08:14;;;;;;;2.38;1.67;;;7.60;96.70;;;;;;5076554;28;20074;-73
2023/04/07 04:10:43;;;;;;;5.85;2.47;;;7.30;96.70;;;;;;5075834;28;20645;-74
2023/04/07 04:13:12;;;;;;;2.80;1.98;;;7.40;96.70;;;;;;5079716;28;20040;-73
2023/04/07 04:15:42;;;;;;;4.13;2.05;;;7.40;96.70;;;;;;5062727;28;20044;-74
2023/04/07 04:23:07;;;;;;;4.50;2.15;;;7.50;96.70;;;;;;5078400;28;20109;-73
2023/04/07 04:25:39;;;;;;;3.88;2.10;;;7.60;96.70;;;;;;5075435;28;20054;-74
2023/04/07 04:28:10;;;;;;;8.05;2.42;;;7.50;96.70;;;;;;5077085;28;20048;-74
2023/04/07 04:30:40;;;;;;;5.38;2.20;;;7.50;96.70;;;;;;5065619;28;20052;-74
2023/04/07 04:37:22;;;;;;;2.72;2.03;;;7.50;96.70;;;;;;5077764;28;20043;-74
2023/04/07 04:39:51;;;;;;;5.78;2.50;;;7.40;96.70;;;;;;5060806;28;20059;-74
2023/04/07 04:42:25;;;;;;;4.28;2.50;;;7.40;96.70;;;;;;5077969;28;20650;-74
2023/04/07 04:44:56;;;;;;;4.38;2.45;;;7.10;96.70;;;;;;5077418;28;20134;-73
2023/04/07 04:47:26;;;;;;;5.28;2.33;;;7.30;96.70;;;;;;5080611;28;20044;-74
2023/04/07 04:49:54;;;;;;;4.32;2.35;;;7.40;96.70;;;;;;5071114;28;20331;-74
2023/04/07 04:52:24;;;;;;;4.18;2.10;;;7.10;96.70;;;;;;5076843;28;20151;-74
2023/04/07 04:54:52;;;;;;;4.35;2.22;;;7.10;96.70;;;;;;5079196;28;20074;-74
2023/04/07 04:57:21;;;;;;;4.80;2.50;;;7.10;96.70;;;;;;5077616;28;20492;-74
2023/04/07 04:59:51;;;;;;;4.70;2.30;;;7.00;96.70;;;;;;5058645;28;20044;-75
2023/04/07 05:02:19;;;;;;;4.47;2.28;;;7.00;96.70;;;;;;5076200;28;20076;-74
2023/04/07 05:04:49;;;;;;;4.82;2.47;;;7.00;96.70;;;;;;5077716;28;20043;-75
2023/04/07 05:07:22;;;;;;;6.88;2.75;;;7.20;96.70;;;;;;5074897;28;20039;-74
2023/04/07 05:09:51;;;;;;;4.75;2.38;;;7.20;96.70;;;;;;5072711;28;20079;-74
2023/04/07 05:12:21;;;;;;;5.00;2.90;;;7.20;96.70;;;;;;5073489;28;20043;-74
2023/04/07 05:14:58;;;;;;;3.67;2.80;;;6.70;96.70;;;;;;5054577;28;20155;-74
2023/04/07 05:17:26;;;;;;;5.88;3.42;;;6.70;96.70;;;;;;5072307;28;20071;-74
2023/04/07 05:19:58;;;;;;;7.22;3.05;;;7.00;96.70;;;;;;5073345;28;20044;-74
2023/04/07 05:22:35;;;;;;;4.43;2.90;;;6.80;96.70;;;;;;5073701;28;20048;-74
2023/04/07 05:25:06;;;;;;;6.25;2.90;;;6.60;96.70;;;;;;5071059;28;20071;-75
2023/04/07 05:27:34;;;;;;;7.93;3.30;;;6.50;96.70;;;;;;5058640;28;20040;-74
2023/04/07 05:30:11;;;;;;;5.95;3.25;;;6.50;96.70;;;;;;5072490;28;20177;-75
2023/04/07 05:32:40;;;;;;;6.22;3.35;;;6.50;96.70;;;;;;5074376;28;20048;-74
2023/04/07 05:35:18;;;;;;;8.38;4.07;;;6.60;96.70;;;;;;5057845;28;20449;-74
2023/04/07 05:37:53;;;;;;;6.78;3.95;;;6.60;96.70;;;;;;5075049;28;20044;-75
2023/04/07 05:40:21;;;;;;;8.23;4.63;;;6.70;96.70;;;;;;5073981;28;20044;-74
2023/04/07 05:42:50;;;;;;;6.40;4.32;;;6.70;96.70;;;;;;5078065;28;20674;-74
2023/04/07 05:45:20;;;;;;;11.60;5.47;;;6.90;96.70;;;;;;5056444;28;20063;-74
2023/04/07 05:47:50;;;;;;;7.65;5.25;;;7.20;96.70;;;;;;5055039;28;20090;-74
2023/04/07 05:50:26;;;;;;;10.55;6.35;;;7.30;96.70;;;;;;5056662;28;20157;-74
2023/04/07 05:52:55;;;;;;;20.65;6.70;;;7.40;96.70;;;;;;5072366;28;20646;-74
2023/04/07 05:55:26;;;;;;;11.93;6.10;;;7.40;96.70;;;;;;5072842;28;20539;-74
2023/04/07 05:57:55;;;;;;;12.95;6.30;;;7.30;96.70;;;;;;5072227;28;20898;-74
2023/04/07 06:00:28;;;;;;;12.50;5.57;;;7.20;96.70;;;;;;5056628;28;20477;-75
2023/04/07 06:03:03;;;;;;;11.95;5.45;;;7.30;96.70;;;;;;5062515;28;20048;-74
2023/04/07 06:05:44;;;;;;;17.23;5.32;;;7.30;96.70;;;;;;5058103;28;20054;-74
2023/04/07 06:08:14;;;;;;;8.35;4.28;;;7.40;96.70;;;;;;5071294;28;20048;-75
2023/04/07 06:10:43;;;;;;;6.88;4.38;;;7.30;96.70;;;;;;5077440;28;22059;-74
2023/04/07 06:13:11;;;;;;;8.45;4.05;;;7.20;96.70;;;;;;5073426;28;20508;-74
2023/04/07 06:15:41;;;;;;;9.32;4.10;;;7.30;96.70;;;;;;5073810;28;20040;-74
2023/04/07 06:18:09;;;;;;;12.27;4.65;;;7.50;96.70;;;;;;5070587;28;20421;-73
2023/04/07 06:20:39;;;;;;;10.98;5.50;;;7.50;96.70;;;;;;5074513;28;20051;-74
2023/04/07 06:23:08;;;;;;;7.38;4.45;;;7.50;96.70;;;;;;5074458;28;20048;-75
2023/04/07 06:25:36;;;;;;;6.85;4.22;;;7.60;96.70;;;;;;5075190;28;20046;-74
2023/04/07 06:28:05;;;;;;;6.75;3.50;;;7.70;96.70;;;;;;5071672;28;20048;-74
2023/04/07 06:30:34;;;;;;;7.65;3.75;;;7.80;96.70;;;;;;5071237;28;20419;-75
2023/04/07 06:33:06;;;;;;;6.72;3.60;;;7.90;96.70;;;;;;5071106;28;20090;-74
2023/04/07 06:35:35;;;;;;;7.30;3.83;;;7.80;96.70;;;;;;5060027;28;20145;-74
2023/04/07 06:38:03;;;;;;;7.55;3.25;;;7.70;96.70;;;;;;5080459;28;20063;-74
2023/04/07 06:40:31;;;;;;;8.35;3.78;;;7.80;96.70;;;;;;5084885;28;20468;-74
2023/04/07 06:43:00;;;;;;;5.20;3.13;;;7.80;96.70;;;;;;5076677;28;20252;-74
2023/04/07 06:45:37;;;;;;;21.50;4.53;;;7.70;96.70;;;;;;5082807;28;20050;-74
2023/04/07 06:48:09;;;;;;;6.45;3.33;;;7.90;96.70;;;;;;5073205;28;20493;-75
2023/04/07 06:50:38;;;;;;;9.80;3.85;;;8.10;96.70;;;;;;5073034;28;20102;-76
2023/04/07 06:53:06;;;;;;;8.65;3.75;;;8.10;96.70;;;;;;5081931;28;20040;-75
2023/04/07 06:55:34;;;;;;;8.65;3.30;;;8.10;96.70;;;;;;5079994;28;20497;-75
2023/04/07 06:58:03;;;;;;;5.97;3.80;;;8.20;96.70;;;;;;5069474;28;20131;-75
2023/04/07 07:00:31;;;;;;;7.57;4.22;;;8.30;96.70;;;;;;5080550;28;20123;-75
2023/04/07 07:03:01;;;;;;;7.32;3.67;;;8.40;96.70;;;;;;5085927;28;20067;-73
2023/04/07 07:05:36;;;;;;;6.28;3.80;;;8.50;96.70;;;;;;5085430;28;20139;-74
2023/04/07 07:08:05;;;;;;;5.82;4.10;;;8.50;96.70;;;;;;5086412;28;20044;-75
2023/04/07 07:10:33;;;;;;;7.55;4.20;;;8.50;96.70;;;;;;5079821;28;20044;-74
2023/04/07 07:13:02;;;;;;;6.03;4.22;;;8.50;96.70;;;;;;5082934;28;20087;-75
2023/04/07 07:15:30;;;;;;;7.63;4.40;;;8.50;96.70;;;;;;5086315;28;20127;-75
2023/04/07 07:17:58;;;;;;;7.20;4.20;;;8.60;96.70;;;;;;5085274;28;20044;-75
2023/04/07 07:20:27;;;;;;;8.88;5.03;;;8.70;96.70;;;;;;5089475;28;20580;-75
2023/04/07 07:22:57;;;;;;;7.85;4.18;;;8.70;96.70;;;;;;5083098;28;20044;-75
2023/04/07 07:25:26;;;;;;;12.98;4.72;;;8.70;96.70;;;;;;5075502;28;20059;-76
2023/04/07 07:27:54;;;;;;;8.75;4.43;;;8.80;96.70;;;;;;5077804;28;20119;-75
2023/04/07 07:30:23;;;;;;;8.75;4.75;;;8.80;96.70;;;;;;5066731;28;20143;-75
2023/04/07 07:32:52;;;;;;;6.00;4.22;;;8.90;96.70;;;;;;5090306;28;20043;-75
2023/04/07 07:35:21;;;;;;;9.48;5.00;;;9.00;96.70;;;;;;5087079;28;20043;-75
2023/04/07 07:37:49;;;;;;;6.07;4.20;;;9.00;96.70;;;;;;5075694;28;20044;-75
2023/04/07 07:40:19;;;;;;;8.15;4.25;;;9.00;96.70;;;;;;5083444;28;20049;-75
2023/04/07 07:42:47;;;;;;;7.70;4.05;;;9.20;96.70;;;;;;5082639;28;20370;-75
2023/04/07 07:45:18;;;;;;;5.60;4.15;;;9.30;96.70;;;;;;5093526;28;20044;-74
2023/04/07 07:47:46;;;;;;;8.27;3.92;;;9.40;96.70;;;;;;5075455;28;20048;-75
2023/04/07 07:50:14;;;;;;;8.20;4.78;;;9.50;96.70;;;;;;5085358;28;20127;-75
2023/04/07 07:52:43;;;;;;;9.57;5.15;;;9.60;96.70;;;;;;5080437;28;20048;-74
2023/04/07 07:55:11;;;;;;;7.32;4.63;;;9.60;96.70;;;;;;5084582;28;20148;-75
2023/04/07 07:57:41;;;;;;;8.40;4.57;;;9.70;96.70;;;;;;5087683;28;20049;-76
2023/04/07 08:00:11;;;;;;;8.43;4.45;;;9.70;96.70;;;;;;5102600;28;20529;-76
2023/04/07 08:02:42;;;;;;;5.88;4.43;;;9.80;96.70;;;;;;5092972;28;20055;-76
2023/04/07 08:05:11;;;;;;;7.68;4.28;;;9.90;96.70;;;;;;5076280;28;20086;-72
2023/04/07 08:07:41;;;;;;;10.82;4.50;;;10.00;96.70;;;;;;5066198;28;20580;-75
2023/04/07 08:10:10;;;;;;;7.97;4.10;;;10.10;96.70;;;;;;5074799;28;20439;-75
2023/04/07 08:12:38;;;;;;;8.23;4.45;;;10.20;96.70;;;;;;5097727;28;20048;-76
2023/04/07 08:15:09;;;;;;;5.55;4.18;;;10.30;96.70;;;;;;5087428;28;20150;-75
2023/04/07 08:17:37;;;;;;;6.10;4.28;;;10.30;96.70;;;;;;5090589;28;20039;-75
2023/04/07 08:20:07;;;;;;;9.38;4.78;;;10.40;96.70;;;;;;5091175;28;20086;-74
2023/04/07 08:22:35;;;;;;;8.45;4.75;;;10.50;96.70;;;;;;5087307;28;20105;-75
2023/04/07 08:25:04;;;;;;;7.15;4.60;;;10.50;96.70;;;;;;5084907;28;20083;-75
2023/04/07 08:27:33;;;;;;;8.40;4.88;;;10.60;96.70;;;;;;5088221;28;20070;-74
2023/04/07 08:30:03;;;;;;;9.48;4.38;;;10.70;96.70;;;;;;5098337;28;20063;-76
2023/04/07 08:32:37;;;;;;;6.55;3.97;;;10.80;96.70;;;;;;5079763;28;20166;-75
2023/04/07 08:35:06;;;;;;;6.10;3.80;;;10.90;96.70;;;;;;5072402;28;20143;-76
2023/04/07 08:37:35;;;;;;;7.32;3.53;;;10.90;96.70;;;;;;5097298;28;20039;-75
2023/04/07 08:40:04;;;;;;;7.90;5.15;;;11.10;96.70;;;;;;5083609;28;20040;-76
2023/04/07 08:42:33;;;;;;;5.90;3.88;;;11.10;96.70;;;;;;5081528;28;20125;-74
2023/04/07 08:45:03;;;;;;;6.55;3.83;;;11.20;96.70;;;;;;5070240;28;20507;-75
2023/04/07 08:47:33;;;;;;;7.60;4.15;;;11.30;96.70;;;;;;5063986;28;20339;-75
2023/04/07 08:50:06;;;;;;;11.98;4.05;;;11.30;96.70;;;;;;5086980;28;20066;-75
2023/04/07 08:52:40;;;;;;;5.40;3.72;;;11.40;96.70;;;;;;5065179;28;20140;-74
2023/04/07 08:55:10;;;;;;;7.20;3.88;;;11.50;96.70;;;;;;5074372;28;20044;-75
2023/04/07 08:57:39;;;;;;;6.70;3.85;;;11.60;96.70;;;;;;5082184;28;20505;-75
2023/04/07 09:00:08;;;;;;;8.25;3.72;;;11.80;96.70;;;;;;5082255;28;20078;-74
2023/04/07 09:02:39;;;;;;;10.10;3.72;;;11.90;96.70;;;;;;5081513;28;20061;-74
2023/04/07 09:05:10;;;;;;;8.77;3.95;;;11.90;96.70;;;;;;5088977;28;20059;-75
2023/04/07 09:07:39;;;;;;;4.60;3.33;;;11.80;96.70;;;;;;5084640;28;20047;-74
2023/04/07 09:10:08;;;;;;;5.80;3.38;;;11.80;96.70;;;;;;5087749;28;20044;-74
2023/04/07 09:12:38;;;;;;;8.73;3.30;;;11.90;96.70;;;;;;5087541;28;20702;-75
2023/04/07 09:15:08;;;;;;;6.13;3.30;;;11.90;96.70;;;;;;5057664;28;20052;-75
2023/04/07 09:17:36;;;;;;;6.78;3.10;;;12.10;96.70;;;;;;5081157;28;20059;-74
2023/04/07 09:20:05;;;;;;;5.80;3.03;;;12.10;96.70;;;;;;5078893;28;20047;-74
2023/04/07 09:22:41;;;;;;;6.20;3.00;;;12.10;96.70;;;;;;5082482;28;20036;-74
2023/04/07 09:25:13;;;;;;;6.27;3.50;;;12.10;96.70;;;;;;5075009;28;20052;-74
2023/04/07 09:27:54;;;;;;;8.25;3.28;;;12.10;96.70;;;;;;5082790;28;20131;-74
2023/04/07 09:30:23;;;;;;;4.75;3.20;;;12.20;96.70;;;;;;5082936;28;21236;-74
2023/04/07 09:32:51;;;;;;;7.03;3.72;;;12.30;96.70;;;;;;5079990;28;20075;-73
2023/04/07 09:35:21;;;;;;;4.53;3.30;;;12.40;96.70;;;;;;5088092;28;20116;-73
2023/04/07 09:38:05;;;;;;;6.13;3.55;;;12.40;96.70;;;;;;5083886;28;20044;-73
2023/04/07 09:40:34;;;;;;;7.03;3.40;;;12.60;96.70;;;;;;5066785;28;20044;-73
2023/04/07 09:43:04;;;;;;;6.63;3.60;;;12.60;96.70;;;;;;5086445;28;20032;-73
2023/04/07 09:45:38;;;;;;;5.85;3.33;;;12.80;96.70;;;;;;5067345;28;20513;-73
2023/04/07 09:48:07;;;;;;;5.60;3.28;;;13.00;96.70;;;;;;5075955;28;20044;-72
2023/04/07 09:50:39;;;;;;;6.38;3.13;;;13.10;96.70;;;;;;5091168;28;20425;-73
2023/04/07 09:53:10;;;;;;;5.43;3.45;;;13.30;96.70;;;;;;5090930;28;20104;-73
2023/04/07 09:55:40;;;;;;;4.13;3.15;;;13.40;96.70;;;;;;5085142;28;20409;-74
2023/04/07 09:58:13;;;;;;;5.35;3.85;;;13.50;96.70;;;;;;5080569;28;20076;-73
2023/04/07 10:00:41;;;;;;;7.10;3.72;;;13.40;96.70;;;;;;5090285;28;20047;-74
2023/04/07 10:03:10;;;;;;;5.38;3.28;;;13.50;96.70;;;;;;5082995;28;20074;-74
2023/04/07 10:05:38;;;;;;;5.00;2.92;;;13.60;96.70;;;;;;5098021;28;20040;-74
2023/04/07 10:08:09;;;;;;;7.20;3.28;;;13.90;96.70;;;;;;5086118;28;20439;-75
2023/04/07 10:10:41;;;;;;;5.40;3.25;;;14.20;96.70;;;;;;5089223;28;20066;-74
2023/04/07 10:13:10;;;;;;;3.58;3.08;;;14.30;96.70;;;;;;5088859;28;20071;-74
2023/04/07 10:15:39;;;;;;;4.40;2.75;;;14.30;96.70;;;;;;5074990;28;20669;-75
2023/04/07 10:18:08;;;;;;;8.10;3.15;;;14.50;96.70;;;;;;5086116;28;20452;-75
2023/04/07 10:20:38;;;;;;;4.72;3.28;;;14.70;96.70;;;;;;5087029;28;20048;-73
2023/04/07 10:23:15;;;;;;;5.20;2.53;;;14.70;96.70;;;;;;5081494;28;20047;-73
2023/04/07 10:25:49;;;;;;;25.00;3.22;;;14.70;96.70;;;;;;5088865;28;20054;-75
2023/04/07 10:28:20;;;;;;;3.95;3.20;;;14.80;96.70;;;;;;5085494;28;20070;-74
2023/04/07 10:30:50;;;;;;;4.53;2.55;;;14.90;96.70;;;;;;5081288;28;20047;-74
2023/04/07 10:33:41;;;;;;;4.65;2.75;;;14.80;96.70;;;;;;5098461;28;20044;-75
2023/04/07 10:36:11;;;;;;;1.90;1.70;;;15.00;96.70;;;;;;5085005;28;20108;-76
2023/04/07 10:38:41;;;;;;;3.55;2.13;;;15.30;96.70;;;;;;5093810;28;20118;-74
2023/04/07 10:41:34;;;;;;;4.07;2.10;;;15.50;96.70;;;;;;5081319;28;20143;-74
2023/04/07 10:44:02;;;;;;;4.35;2.38;;;15.70;96.70;;;;;;5072219;28;20055;-74
2023/04/07 10:47:04;;;;;;;4.68;2.50;;;16.00;96.70;;;;;;5083613;28;20385;-74
2023/04/07 10:49:33;;;;;;;5.47;3.13;;;16.10;96.70;;;;;;5077380;28;20081;-74
2023/04/07 10:52:21;;;;;;;4.05;2.50;;;16.10;96.70;;;;;;5093299;28;20055;-74
2023/04/07 10:55:33;;;;;;;4.43;2.53;;;16.30;96.70;;;;;;5085049;28;20077;-73
2023/04/07 10:58:27;;;;;;;5.10;2.53;;;16.30;96.70;;;;;;5082423;28;20176;-73
2023/04/07 11:01:20;;;;;;;3.58;2.55;;;16.30;96.70;;;;;;5085391;28;20135;-74
2023/04/07 11:03:59;;;;;;;3.72;2.60;;;16.40;96.70;;;;;;5058554;28;20056;-74
2023/04/07 11:06:27;;;;;;;4.35;2.58;;;16.50;96.70;;;;;;5083491;28;20354;-74
2023/04/07 11:08:55;;;;;;;7.00;3.10;;;16.60;96.70;;;;;;5095117;28;20063;-74
2023/04/07 11:11:40;;;;;;;7.20;2.63;;;16.70;96.70;;;;;;5093819;28;20081;-74
2023/04/07 11:14:10;;;;;;;4.30;2.78;;;16.70;96.70;;;;;;5096789;28;20040;-73
2023/04/07 11:16:41;;;;;;;4.22;2.50;;;16.80;96.70;;;;;;5084071;28;20067;-73
2023/04/07 11:19:10;;;;;;;7.57;2.58;;;17.00;96.70;;;;;;5084066;28;20126;-73
2023/04/07 11:21:38;;;;;;;4.93;2.25;;;17.10;96.70;;;;;;5067023;28;20043;-73
2023/04/07 11:24:07;;;;;;;5.85;2.70;;;17.20;96.70;;;;;;5092051;28;20402;-73
2023/04/07 11:26:40;;;;;;;8.25;2.50;;;17.50;96.70;;;;;;5092480;28;20439;-73
2023/04/07 11:29:11;;;;;;;9.90;2.70;;;17.80;96.70;;;;;;5074254;28;20162;-74
2023/04/07 11:31:56;;;;;;;4.88;2.42;;;18.00;96.70;;;;;;5086245;28;20055;-73
2023/04/07 11:34:40;;;;;;;3.42;2.42;;;17.80;96.70;;;;;;5082852;28;20055;-74
2023/04/07 11:37:26;;;;;;;4.68;2.83;;;17.50;96.70;;;;;;5084133;28;20634;-74
2023/04/07 11:40:36;;;;;;;2.50;2.20;;;17.40;96.70;;;;;;5094398;28;20509;-74
2023/04/07 11:43:18;;;;;;;2.30;1.92;;;17.60;96.70;;;;;;5092254;28;20055;-74
2023/04/07 11:46:03;;;;;;;4.65;2.30;;;17.60;96.70;;;;;;5075026;28;20060;-74
2023/04/07 11:48:41;;;;;;;3.70;1.92;;;17.60;96.70;;;;;;5086451;28;20040;-74
2023/04/07 11:51:16;;;;;;;6.38;2.03;;;17.60;96.70;;;;;;5093623;27;20086;-73
2023/04/07 11:53:46;;;;;;;2.88;2.20;;;17.70;96.70;;;;;;5099600;28;20048;-74
2023/04/07 11:56:16;;;;;;;5.00;2.20;;;17.80;96.70;;;;;;5067635;28;20048;-73
2023/04/07 11:58:48;;;;;;;3.80;2.53;;;17.60;96.70;;;;;;5085083;28;20052;-74
2023/04/07 12:01:18;;;;;;;5.43;3.40;;;17.50;96.70;;;;;;5087989;28;20044;-74
2023/04/07 12:03:57;;;;;;;3.88;2.60;;;17.40;96.70;;;;;;5088249;28;20485;-73
2023/04/07 12:06:33;;;;;;;7.22;4.20;;;17.40;96.70;;;;;;5083027;28;20075;-74
2023/04/07 12:09:02;;;;;;;3.33;2.83;;;17.30;96.70;;;;;;5086515;28;20359;-73
2023/04/07 12:11:31;;;;;;;5.45;2.30;;;17.20;96.70;;;;;;5085045;28;20600;-74
2023/04/07 12:14:00;;;;;;;3.58;2.70;;;17.00;96.70;;;;;;5093881;28;20048;-74
2023/04/07 12:16:30;;;;;;;4.30;2.75;;;17.00;96.70;;;;;;5093886;28;20054;-74
2023/04/07 12:18:59;;;;;;;5.30;3.28;;;16.80;96.70;;;;;;5084513;28;20574;-73
2023/04/07 12:21:27;;;;;;;7.03;3.40;;;16.70;96.70;;;;;;5086007;28;20061;-74
2023/04/07 12:23:55;;;;;;;36.25;25.02;;;16.60;96.70;;;;;;5078461;28;20083;-73
2023/04/07 12:26:24;;;;;;;21.08;13.57;;;16.50;96.70;;;;;;5089245;28;20044;-73
2023/04/07 12:28:54;;;;;;;7.32;5.07;;;16.50;96.70;;;;;;5084006;28;20047;-73
2023/04/07 12:31:23;;;;;;;7.72;3.60;;;16.50;96.70;;;;;;5082976;28;20040;-73
2023/04/07 12:33:53;;;;;;;5.20;3.47;;;16.50;96.70;;;;;;5092980;28;20504;-73
2023/04/07 12:36:21;;;;;;;4.60;2.63;;;16.60;96.70;;;;;;5084291;28;20497;-73
2023/04/07 12:38:50;;;;;;;5.15;2.78;;;16.70;96.70;;;;;;5090625;28;20241;-73
2023/04/07 12:41:19;;;;;;;3.65;2.25;;;16.90;96.70;;;;;;5086521;28;20042;-73
2023/04/07 12:43:48;;;;;;;5.97;3.00;;;17.10;96.70;;;;;;5091208;28;20047;-73
2023/04/07 12:46:18;;;;;;;7.05;4.78;;;17.40;96.70;;;;;;5090267;28;20052;-73
2023/04/07 12:48:46;;;;;;;6.50;3.17;;;17.40;96.70;;;;;;5098088;28;20071;-73
2023/04/07 12:51:17;;;;;;;5.60;3.00;;;17.40;96.70;;;;;;5086104;28;20047;-73
2023/04/07 12:53:46;;;;;;;5.78;2.25;;;17.60;96.70;;;;;;5099093;28;20760;-73
2023/04/07 12:56:16;;;;;;;3.08;2.03;;;17.80;96.70;;;;;;5083002;28;20044;-74
2023/04/07 12:58:44;;;;;;;4.47;2.05;;;18.00;96.70;;;;;;5082944;28;20482;-74
2023/04/07 13:01:14;;;;;;;5.05;1.80;;;18.10;96.70;;;;;;5089840;28;20044;-74
2023/04/07 13:03:42;;;;;;;2.53;1.65;;;18.10;96.70;;;;;;5064679;28;20118;-75
2023/04/07 13:06:11;;;;;;;8.10;2.15;;;18.30;96.70;;;;;;5088944;28;20035;-75
2023/04/07 13:08:42;;;;;;;4.78;1.80;;;18.40;96.70;;;;;;5079537;28;20139;-76
2023/04/07 13:11:10;;;;;;;4.43;1.73;;;18.40;96.70;;;;;;5081301;28;20515;-75
2023/04/07 13:13:39;;;;;;;3.33;1.77;;;18.50;96.70;;;;;;5066959;28;20071;-75
2023/04/07 13:16:08;;;;;;;6.10;1.70;;;18.60;96.70;;;;;;5087291;28;20092;-74
2023/04/07 13:18:36;;;;;;;3.03;1.30;;;18.60;96.70;;;;;;5091966;28;20047;-74
2023/04/07 13:21:05;;;;;;;3.05;1.30;;;18.70;96.70;;;;;;5076658;28;20055;-75
2023/04/07 13:23:55;;;;;;;4.35;1.30;;;18.70;96.70;;;;;;5095371;28;20056;-75
2023/04/07 13:26:25;;;;;;;4.15;1.50;;;18.90;96.70;;;;;;5085355;28;20052;-75
2023/04/07 13:28:54;;;;;;;4.38;1.63;;;18.90;96.70;;;;;;5089871;28;20048;-75
2023/04/07 13:31:22;;;;;;;2.05;1.65;;;18.80;96.70;;;;;;5089844;28;20048;-75
2023/04/07 13:33:51;;;;;;;3.28;1.30;;;18.70;96.70;;;;;;5089727;28;20046;-74
2023/04/07 13:36:21;;;;;;;3.45;1.50;;;18.50;96.70;;;;;;5081902;28;20044;-74
2023/04/07 13:38:52;;;;;;;2.45;1.10;;;18.50;96.70;;;;;;5095496;28;20054;-74
2023/04/07 13:41:22;;;;;;;5.65;1.40;;;18.60;96.70;;;;;;5095317;28;20576;-75
2023/04/07 13:43:51;;;;;;;2.30;1.00;;;18.50;96.70;;;;;;5097567;28;20047;-75
2023/04/07 13:46:19;;;;;;;3.25;1.30;;;18.70;96.70;;;;;;5088566;28;20044;-75
2023/04/07 13:48:56;;;;;;;2.22;1.15;;;19.10;96.70;;;;;;5082426;28;20040;-75
2023/04/07 13:51:24;;;;;;;2.55;1.00;;;19.40;96.70;;;;;;5093311;28;20039;-74
2023/04/07 13:53:53;;;;;;;6.15;1.10;;;19.50;96.70;;;;;;5089446;28;20059;-74
2023/04/07 13:56:23;;;;;;;2.10;0.85;;;19.60;96.70;;;;;;5080679;28;20033;-74
2023/04/07 13:58:52;;;;;;;2.20;1.10;;;19.80;96.70;;;;;;5079712;28;20489;-75
2023/04/07 14:01:21;;;;;;;3.58;1.25;;;19.60;96.70;;;;;;5075758;28;20048;-75
2023/04/07 14:03:50;;;;;;;4.30;1.30;;;19.60;96.70;;;;;;5081813;28;20048;-74
2023/04/07 14:06:21;;;;;;;4.57;1.20;;;20.00;96.70;;;;;;5088191;28;20569;-74
2023/04/07 14:08:50;;;;;;;2.70;1.00;;;20.10;96.70;;;;;;5089437;28;20109;-75
2023/04/07 14:11:19;;;;;;;3.45;1.45;;;20.50;96.70;;;;;;5097984;28;20043;-74
2023/04/07 14:13:50;;;;;;;2.80;1.05;;;20.60;96.70;;;;;;5090292;28;20234;-74
2023/04/07 14:16:20;;;;;;;2.85;1.17;;;21.00;96.70;;;;;;5085586;28;20421;-74
2023/04/07 14:18:50;;;;;;;3.78;1.10;;;20.80;96.70;;;;;;5089695;28;20123;-74
2023/04/07 14:21:19;;;;;;;3.10;1.45;;;20.00;96.70;;;;;;5082002;28;20125;-74
2023/04/07 14:23:47;;;;;;;3.90;1.00;;;19.60;96.70;;;;;;5085414;28;20056;-73
2023/04/07 14:26:16;;;;;;;3.85;0.90;;;19.10;96.70;;;;;;5094793;28;20079;-74
2023/04/07 14:28:46;;;;;;;4.57;2.53;;;19.50;96.70;;;;;;5093938;28;20457;-75
2023/04/07 14:31:16;;;;;;;4.78;1.20;;;19.00;96.70;;;;;;5099104;28;20055;-74
2023/04/07 14:33:45;;;;;;;2.95;1.00;;;19.50;96.70;;;;;;5086414;28;20048;-74
2023/04/07 14:36:17;;;;;;;3.47;1.20;;;19.90;96.70;;;;;;5084127;28;20050;-74
2023/04/07 14:38:46;;;;;;;3.05;0.90;;;20.60;96.70;;;;;;5067647;28;20082;-74
2023/04/07 14:41:15;;;;;;;4.30;1.20;;;20.50;96.70;;;;;;5097858;28;20044;-74
2023/04/07 14:43:44;;;;;;;2.15;1.17;;;19.50;96.70;;;;;;5096675;28;20074;-74
2023/04/07 14:46:13;;;;;;;3.80;1.40;;;18.90;96.70;;;;;;5091979;28;20490;-74
2023/04/07 14:48:45;;;;;;;3.78;1.23;;;18.80;96.70;;;;;;5094307;28;20040;-74
2023/04/07 14:51:13;;;;;;;2.85;1.27;;;18.50;96.70;;;;;;5083588;28;20063;-74
2023/04/07 14:53:42;;;;;;;2.78;1.20;;;18.00;96.70;;;;;;5085083;28;20036;-74
2023/04/07 14:56:11;;;;;;;3.80;1.50;;;17.60;96.70;;;;;;5077240;28;20055;-74
2023/04/07 14:58:40;;;;;;;2.13;0.88;;;17.30;96.70;;;;;;5104395;28;20096;-74
2023/04/07 15:01:09;;;;;;;3.10;1.38;;;17.20;96.70;;;;;;5091125;28;20058;-74
2023/04/07 15:03:37;;;;;;;2.90;1.02;;;17.00;96.70;;;;;;5085594;28;20054;-74
2023/04/07 15:06:08;;;;;;;1.58;1.08;;;16.80;96.70;;;;;;5083779;28;20134;-73
2023/04/07 15:08:37;;;;;;;1.55;0.95;;;16.80;96.70;;;;;;5083643;28;20172;-74
2023/04/07 15:11:07;;;;;;;4.13;1.35;;;16.70;96.70;;;;;;5101759;28;20047;-74
2023/04/07 15:13:36;;;;;;;2.80;1.10;;;16.70;96.70;;;;;;5100570;28;20043;-74
2023/04/07 15:16:09;;;;;;;2.03;0.98;;;16.60;96.70;;;;;;5091343;28;20117;-73
2023/04/07 15:18:40;;;;;;;1.80;1.00;;;16.60;96.70;;;;;;5083811;28;20138;-74
2023/04/07 15:21:11;;;;;;;3.47;1.02;;;16.50;96.70;;;;;;5066585;28;20059;-74
2023/04/07 15:23:40;;;;;;;5.07;1.40;;;16.40;96.70;;;;;;5095719;28;20177;-75
2023/04/07 15:26:09;;;;;;;3.47;1.10;;;16.30;96.70;;;;;;5083251;28;20055;-74
2023/04/07 15:28:38;;;;;;;3.80;1.17;;;16.30;96.70;;;;;;5083828;28;20075;-73
2023/04/07 15:31:08;;;;;;;2.85;1.10;;;16.20;96.70;;;;;;5096751;28;20646;-73
2023/04/07 15:33:38;;;;;;;3.80;1.27;;;16.20;96.70;;;;;;5083784;28;20048;-74
2023/04/07 15:36:09;;;;;;;1.75;1.00;;;16.20;96.70;;;;;;5100599;28;20172;-74
2023/04/07 15:38:39;;;;;;;2.50;0.70;;;16.30;96.70;;;;;;5082649;28;20047;-73
2023/04/07 15:41:07;;;;;;;2.35;0.90;;;16.30;96.70;;;;;;5066348;28;20520;-74
2023/04/07 15:43:36;;;;;;;2.20;0.93;;;16.30;96.70;;;;;;5096952;28;20117;-75
2023/04/07 15:46:05;;;;;;;3.05;1.02;;;16.40;96.70;;;;;;5090292;28;20039;-74
2023/04/07 15:48:34;;;;;;;4.15;1.15;;;16.40;96.70;;;;;;5084943;28;20051;-74
2023/04/07 15:51:03;;;;;;;3.20;1.13;;;16.50;96.70;;;;;;5100107;28;20053;-74
2023/04/07 15:53:34;;;;;;;2.72;1.00;;;16.60;96.70;;;;;;5092789;28;20044;-74
2023/04/07 15:56:02;;;;;;;3.45;1.63;;;16.60;96.70;;;;;;5089589;28;20591;-74
2023/04/07 15:58:31;;;;;;;3.88;1.20;;;16.70;96.70;;;;;;5086300;28;20115;-74
2023/04/07 16:01:00;;;;;;;4.28;1.48;;;16.70;96.70;;;;;;5089664;28;20059;-74
2023/04/07 16:03:30;;;;;;;3.22;1.10;;;16.80;96.70;;;;;;5092585;28;20063;-74
2023/04/07 16:05:59;;;;;;;6.63;2.03;;;16.80;96.70;;;;;;5083846;28;20079;-74
2023/04/07 16:08:28;;;;;;;5.88;1.95;;;16.70;96.70;;;;;;5065532;28;20056;-74
2023/04/07 16:10:58;;;;;;;5.13;1.30;;;16.50;96.70;;;;;;5097467;28;20047;-74
2023/04/07 16:13:27;;;;;;;3.20;1.70;;;16.40;96.70;;;;;;5094086;28;20055;-74
2023/04/07 16:15:56;;;;;;;3.42;1.40;;;16.30;96.70;;;;;;5081570;28;20060;-74
2023/04/07 16:18:25;;;;;;;3.30;1.30;;;16.10;96.70;;;;;;5090504;28;20428;-74
2023/04/07 16:20:53;;;;;;;5.25;3.17;;;16.00;96.70;;;;;;5069768;28;20044;-74
2023/04/07 16:23:22;;;;;;;2.70;1.45;;;15.90;96.70;;;;;;5086386;28;20050;-74